21kousinmaru — JD2168 — position and weather

sailwx.info

Track history (hours):
 
Tides and Currents Weather Stations Pressure Air Temp Water Temp Dewpoint Dewpoint Depression Visibility Wind Speed Wind Dir Waves Ship Positions

21kousinmaru

Last reported at 2015-Aug-29 07:06 UTC. Time now 2015-Sep-01 20:19 UTC.
Position N 35°03' E 139°32'.

Length 68 m; draft 4.4 m.

MMSI: 431501835.

Date/timePositionNaut miles runAvg speedWind from/ knotsBaromVisibWave heightAir tempDewpointWater temp
2015-Aug-29 07:06N 35°03' E 139°32'1710.5
2015-Aug-29 05:27N 35°18' E 139°44'910.5
2015-Aug-29 04:33N 35°27' E 139°47'1212.4
2015-Aug-29 03:33N 35°32' E 140°01'2 2.1
2015-Aug-29 02:33N 35°32' E 140°03'0 0.0
2015-Aug-29 01:32N 35°32' E 140°03'0 0.0
2015-Aug-29 00:33N 35°32' E 140°03'0 0.2
2015-Aug-28 23:33N 35°32' E 140°03'7 7.1
2015-Aug-28 22:33N 35°28' E 139°56'0 0.0
2015-Aug-28 21:33N 35°28' E 139°56'0 0.0
2015-Aug-28 20:33N 35°28' E 139°56'0 0.0
2015-Aug-28 19:33N 35°28' E 139°56'0 0.0
2015-Aug-28 18:33N 35°28' E 139°56'0 0.0
2015-Aug-28 17:33N 35°28' E 139°56'0 0.0
2015-Aug-28 16:33N 35°28' E 139°56'0 0.0
2015-Aug-28 15:33N 35°28' E 139°56'0 0.0
2015-Aug-28 14:33N 35°28' E 139°56'0 0.0
2015-Aug-28 13:33N 35°28' E 139°56'0 0.0
2015-Aug-28 12:33N 35°28' E 139°56'0 0.0
2015-Aug-28 11:33N 35°28' E 139°56'0 0.1
2015-Aug-28 10:33N 35°29' E 139°55'1010.2
2015-Aug-28 09:33N 35°22' E 139°45'1110.6
2015-Aug-28 08:33N 35°12' E 139°47'  
2015-Aug-20 09:25N 34°37' E 135°01'910.4
2015-Aug-20 08:32N 34°34' E 135°12'1110.8
2015-Aug-20 07:30N 34°32' E 135°25'0 0.1
2015-Aug-20 06:33N 34°32' E 135°25'0 0.0
2015-Aug-20 05:32N 34°32' E 135°25'0 0.0
2015-Aug-20 04:32N 34°32' E 135°25'0 0.0
2015-Aug-20 03:33N 34°32' E 135°25'0 0.0
2015-Aug-20 02:32N 34°32' E 135°25'0 0.0
2015-Aug-20 01:28N 34°32' E 135°25'3 3.7
2015-Aug-20 00:32N 34°32' E 135°21'1212.3
2015-Aug-19 23:33N 34°25' E 135°09'1311.8
2015-Aug-19 22:27N 34°15' E 134°59'  
Track history (hours):
 
Tides and Currents Weather Stations Pressure Air Temp Water Temp Dewpoint Dewpoint Depression Visibility Wind Speed Wind Dir Waves Ship Positions

21kousinmaru

Last reported at 2015-Aug-29 07:06 UTC. Time now 2015-Sep-01 20:19 UTC.
Position N 35°03' E 139°32'.

Length 68 m; draft 4.4 m.

MMSI: 431501835.

Date/timePositionNaut miles runAvg speedWind from/ knotsBaromVisibWave heightAir tempDewpointWater temp
2015-Aug-29 07:06N 35°03' E 139°32'1710.5
2015-Aug-29 05:27N 35°18' E 139°44'910.5
2015-Aug-29 04:33N 35°27' E 139°47'1212.4
2015-Aug-29 03:33N 35°32' E 140°01'2 2.1
2015-Aug-29 02:33N 35°32' E 140°03'0 0.0
2015-Aug-29 01:32N 35°32' E 140°03'0 0.0
2015-Aug-29 00:33N 35°32' E 140°03'0 0.2
2015-Aug-28 23:33N 35°32' E 140°03'7 7.1
2015-Aug-28 22:33N 35°28' E 139°56'0 0.0
2015-Aug-28 21:33N 35°28' E 139°56'0 0.0
2015-Aug-28 20:33N 35°28' E 139°56'0 0.0
2015-Aug-28 19:33N 35°28' E 139°56'0 0.0
2015-Aug-28 18:33N 35°28' E 139°56'0 0.0
2015-Aug-28 17:33N 35°28' E 139°56'0 0.0
2015-Aug-28 16:33N 35°28' E 139°56'0 0.0
2015-Aug-28 15:33N 35°28' E 139°56'0 0.0
2015-Aug-28 14:33N 35°28' E 139°56'0 0.0
2015-Aug-28 13:33N 35°28' E 139°56'0 0.0
2015-Aug-28 12:33N 35°28' E 139°56'0 0.0
2015-Aug-28 11:33N 35°28' E 139°56'0 0.1
2015-Aug-28 10:33N 35°29' E 139°55'1010.2
2015-Aug-28 09:33N 35°22' E 139°45'1110.6
2015-Aug-28 08:33N 35°12' E 139°47'  
2015-Aug-20 09:25N 34°37' E 135°01'910.4
2015-Aug-20 08:32N 34°34' E 135°12'1110.8
2015-Aug-20 07:30N 34°32' E 135°25'0 0.1
2015-Aug-20 06:33N 34°32' E 135°25'0 0.0
2015-Aug-20 05:32N 34°32' E 135°25'0 0.0
2015-Aug-20 04:32N 34°32' E 135°25'0 0.0
2015-Aug-20 03:33N 34°32' E 135°25'0 0.0
2015-Aug-20 02:32N 34°32' E 135°25'0 0.0
2015-Aug-20 01:28N 34°32' E 135°25'3 3.7
2015-Aug-20 00:32N 34°32' E 135°21'1212.3
2015-Aug-19 23:33N 34°25' E 135°09'1311.8
2015-Aug-19 22:27N 34°15' E 134°59'  

Dump ship's entire track history